Time;durP1;ratioP1;P1;durP2;ratioP2;P2;SDS_P1;SDS_P2;PMS_P1;PMS_P2;Temp;Humidity;BMP_temperature;BMP_pressure;BME280_temperature;BME280_humidity;BME280_pressure;Samples;Min_cycle;Max_cycle;Signal;HPM_P1;HPM_P2
2023/03/11 00:00:11;;;;;;;4.20;3.90;;;5.60;99.90;;;;;;4916479;29;20379;-82
2023/03/11 00:02:38;;;;;;;3.80;3.60;;;5.60;99.90;;;;;;4917757;29;20504;-82
2023/03/11 00:05:04;;;;;;;4.07;3.88;;;5.60;99.90;;;;;;4915920;29;20198;-82
2023/03/11 00:07:29;;;;;;;5.40;4.93;;;5.60;99.90;;;;;;4917886;29;20636;-82
2023/03/11 00:09:55;;;;;;;4.53;4.33;;;5.50;99.90;;;;;;4918403;29;20231;-82
2023/03/11 00:12:21;;;;;;;4.30;4.00;;;5.50;99.90;;;;;;4917527;29;20187;-82
2023/03/11 00:14:46;;;;;;;5.03;4.73;;;5.50;99.90;;;;;;4917962;29;20271;-82
2023/03/11 00:17:12;;;;;;;6.87;4.30;;;5.40;99.90;;;;;;4917110;29;20274;-82
2023/03/11 00:19:38;;;;;;;5.10;4.80;;;5.60;99.90;;;;;;4918704;29;20182;-83
2023/03/11 00:22:03;;;;;;;5.20;4.90;;;5.50;99.90;;;;;;4916947;29;20194;-82
2023/03/11 00:24:29;;;;;;;5.30;4.90;;;5.40;99.90;;;;;;4917367;29;20179;-82
2023/03/11 00:26:55;;;;;;;4.73;4.43;;;5.40;99.90;;;;;;4915627;29;20225;-81
2023/03/11 00:29:20;;;;;;;4.70;4.40;;;5.30;99.90;;;;;;4915311;29;20191;-82
2023/03/11 00:31:46;;;;;;;5.37;5.00;;;5.30;99.90;;;;;;4916822;29;20591;-83
2023/03/11 00:34:12;;;;;;;4.80;4.50;;;5.20;99.90;;;;;;4915618;29;20191;-81
2023/03/11 00:36:37;;;;;;;4.40;4.10;;;5.30;99.90;;;;;;4916013;29;20579;-81
2023/03/11 00:39:05;;;;;;;4.97;4.63;;;5.20;99.90;;;;;;4917570;29;20264;-82
2023/03/11 00:41:35;;;;;;;4.18;3.88;;;5.30;99.90;;;;;;4917445;29;20209;-81
2023/03/11 00:44:01;;;;;;;4.80;4.40;;;5.20;99.90;;;;;;4916473;29;20226;-81
2023/03/11 00:46:28;;;;;;;5.13;4.50;;;5.30;99.90;;;;;;4918025;29;20186;-82
2023/03/11 00:48:54;;;;;;;4.95;4.65;;;5.30;99.90;;;;;;4917668;29;20178;-82
2023/03/11 00:51:20;;;;;;;4.93;4.60;;;5.30;99.90;;;;;;4915671;29;20193;-81
2023/03/11 00:53:45;;;;;;;4.90;4.50;;;5.40;99.90;;;;;;4917806;29;20396;-82
2023/03/11 00:56:13;;;;;;;5.37;4.93;;;5.40;99.90;;;;;;4911591;29;20203;-81
2023/03/11 00:58:40;;;;;;;6.30;5.30;;;5.40;99.90;;;;;;4906061;29;20191;-81
2023/03/11 01:01:11;;;;;;;4.90;4.50;;;5.30;99.90;;;;;;4915274;29;20187;-81
2023/03/11 01:03:37;;;;;;;5.55;5.05;;;5.40;99.90;;;;;;4917931;29;20281;-81
2023/03/11 01:06:04;;;;;;;4.75;4.45;;;5.40;99.90;;;;;;4916418;29;20567;-81
2023/03/11 01:08:30;;;;;;;4.95;4.30;;;5.40;99.90;;;;;;4915615;29;20187;-81
2023/03/11 01:10:56;;;;;;;3.97;3.67;;;5.50;99.90;;;;;;4915922;29;20356;-81
2023/03/11 01:13:22;;;;;;;5.13;3.85;;;5.60;99.90;;;;;;4916727;29;20669;-81
2023/03/11 01:15:48;;;;;;;4.40;3.97;;;5.60;99.90;;;;;;4916575;29;20202;-81
2023/03/11 01:18:14;;;;;;;4.03;3.73;;;5.60;99.90;;;;;;4915885;29;20184;-81
2023/03/11 01:20:41;;;;;;;3.88;3.67;;;5.50;99.90;;;;;;4917147;29;20190;-81
2023/03/11 01:23:08;;;;;;;3.88;3.60;;;5.50;99.90;;;;;;4915619;29;20191;-81
2023/03/11 01:25:34;;;;;;;4.30;4.00;;;5.60;99.90;;;;;;4916454;29;20195;-81
2023/03/11 01:27:59;;;;;;;4.10;3.80;;;5.60;99.90;;;;;;4916130;29;20186;-81
2023/03/11 01:30:27;;;;;;;3.40;3.10;;;5.60;99.90;;;;;;4915388;29;20217;-81
2023/03/11 01:32:54;;;;;;;3.80;3.60;;;5.60;99.90;;;;;;4916571;29;20434;-81
2023/03/11 01:35:22;;;;;;;6.60;4.03;;;5.40;99.90;;;;;;4916205;29;20221;-81
2023/03/11 01:37:48;;;;;;;4.68;4.28;;;5.50;99.90;;;;;;4916092;29;20183;-81
2023/03/11 01:40:30;;;;;;;3.72;3.53;;;5.40;99.90;;;;;;4915399;29;20186;-81
2023/03/11 01:42:58;;;;;;;4.72;4.32;;;5.50;99.90;;;;;;4931357;29;20237;-81
2023/03/11 01:45:45;;;;;;;4.78;4.47;;;5.30;99.90;;;;;;4915526;29;20265;-81
2023/03/11 01:48:11;;;;;;;4.68;4.15;;;5.30;99.90;;;;;;4910772;29;20186;-81
2023/03/11 01:50:43;;;;;;;5.23;4.83;;;6.00;99.90;;;;;;4915959;29;20198;-81
2023/03/11 01:53:10;;;;;;;4.65;4.25;;;5.40;99.90;;;;;;4915945;29;20262;-81
2023/03/11 01:55:37;;;;;;;4.35;4.05;;;5.50;99.90;;;;;;4915679;29;20616;-81
2023/03/11 01:58:07;;;;;;;4.78;4.32;;;5.40;99.90;;;;;;4915602;29;20622;-81
2023/03/11 02:00:35;;;;;;;4.65;4.25;;;5.50;99.90;;;;;;4915866;29;20190;-81
2023/03/11 02:03:06;;;;;;;4.60;4.20;;;5.60;99.90;;;;;;4916530;29;20262;-81
2023/03/11 02:05:32;;;;;;;4.97;4.68;;;5.60;99.90;;;;;;4916035;29;20217;-81
2023/03/11 02:07:58;;;;;;;5.47;4.70;;;5.60;99.90;;;;;;4915668;29;20269;-81
2023/03/11 02:10:25;;;;;;;11.00;4.90;;;5.60;99.90;;;;;;4914658;29;20175;-82
2023/03/11 02:12:51;;;;;;;4.88;4.47;;;5.60;99.90;;;;;;4915889;29;20186;-82
2023/03/11 02:15:17;;;;;;;5.70;5.25;;;5.60;99.90;;;;;;4914824;29;20218;-81
2023/03/11 02:17:43;;;;;;;5.13;4.20;;;5.70;99.90;;;;;;4916125;29;20188;-81
2023/03/11 02:20:26;;;;;;;4.50;4.10;;;5.60;99.90;;;;;;4915120;29;20401;-81
2023/03/11 02:22:55;;;;;;;4.47;4.07;;;5.60;99.90;;;;;;4914280;29;20647;-81
2023/03/11 02:25:30;;;;;;;5.00;4.55;;;5.60;99.90;;;;;;4897967;29;20706;-81
2023/03/11 02:27:58;;;;;;;6.43;4.13;;;5.60;99.90;;;;;;4916886;29;20430;-81
2023/03/11 02:30:26;;;;;;;6.07;4.32;;;5.60;99.90;;;;;;4914246;29;20632;-81
2023/03/11 02:32:53;;;;;;;4.53;4.13;;;5.60;99.90;;;;;;4915831;29;20536;-81
2023/03/11 02:35:20;;;;;;;4.32;4.03;;;5.60;99.90;;;;;;4916073;29;20241;-81
2023/03/11 02:37:51;;;;;;;5.20;4.70;;;5.60;99.90;;;;;;4915551;29;20584;-81
2023/03/11 02:40:22;;;;;;;6.50;4.75;;;5.60;99.90;;;;;;4915659;29;20277;-81
2023/03/11 02:42:50;;;;;;;4.50;4.10;;;5.70;99.90;;;;;;4919161;29;20191;-81
2023/03/11 02:45:19;;;;;;;4.07;3.88;;;5.70;99.90;;;;;;4920918;29;20182;-81
2023/03/11 02:47:45;;;;;;;3.90;3.63;;;5.70;99.90;;;;;;4922560;29;20203;-81
2023/03/11 02:50:14;;;;;;;3.47;3.20;;;5.80;99.90;;;;;;4923049;29;20182;-81
2023/03/11 02:52:40;;;;;;;4.20;3.90;;;5.70;99.90;;;;;;4922892;29;20922;-81
2023/03/11 02:55:06;;;;;;;3.87;3.57;;;5.80;99.90;;;;;;4919099;29;20238;-80
2023/03/11 02:57:32;;;;;;;3.72;3.38;;;5.70;99.90;;;;;;4914312;29;20442;-81
2023/03/11 02:59:59;;;;;;;4.13;3.33;;;5.70;99.90;;;;;;4915155;29;20182;-81
2023/03/11 03:02:25;;;;;;;3.50;3.30;;;5.70;99.90;;;;;;4914953;29;20946;-82
2023/03/11 03:04:50;;;;;;;4.10;3.67;;;5.70;99.90;;;;;;4915658;29;20190;-81
2023/03/11 03:07:16;;;;;;;4.10;3.70;;;5.70;99.90;;;;;;4914927;29;20187;-81
2023/03/11 03:09:41;;;;;;;3.63;3.43;;;5.70;99.90;;;;;;4916132;29;20230;-81
2023/03/11 03:12:07;;;;;;;5.67;3.77;;;5.70;99.90;;;;;;4915157;29;20225;-81
2023/03/11 03:14:33;;;;;;;3.93;3.53;;;5.60;99.90;;;;;;4915087;29;20187;-82
2023/03/11 03:16:59;;;;;;;5.67;3.80;;;5.60;99.90;;;;;;4914598;29;20211;-82
2023/03/11 03:19:24;;;;;;;3.30;3.07;;;5.60;99.90;;;;;;4913552;29;20195;-82
2023/03/11 03:21:50;;;;;;;4.60;3.70;;;5.60;99.90;;;;;;4917661;29;20186;-82
2023/03/11 03:24:16;;;;;;;6.00;4.00;;;5.60;99.90;;;;;;4917722;29;20187;-82
2023/03/11 03:26:42;;;;;;;4.27;3.87;;;5.60;99.90;;;;;;4918324;29;20889;-81
2023/03/11 03:29:07;;;;;;;6.80;3.60;;;5.70;99.90;;;;;;4919069;29;20194;-81
2023/03/11 03:31:33;;;;;;;4.00;3.60;;;5.70;99.90;;;;;;4918048;29;20203;-81
2023/03/11 03:33:59;;;;;;;4.93;3.50;;;5.70;99.90;;;;;;4918359;29;20199;-81
2023/03/11 03:36:24;;;;;;;4.47;4.03;;;5.70;99.90;;;;;;4918146;29;20206;-81
2023/03/11 03:38:56;;;;;;;5.73;3.90;;;5.70;99.90;;;;;;4918897;29;20196;-81
2023/03/11 03:41:22;;;;;;;5.40;4.90;;;5.60;99.90;;;;;;4916880;29;20522;-81
2023/03/11 03:43:48;;;;;;;4.27;3.90;;;5.60;99.90;;;;;;4919499;29;20299;-81
2023/03/11 03:46:14;;;;;;;5.97;4.30;;;5.50;99.90;;;;;;4917518;29;20420;-81
2023/03/11 03:48:40;;;;;;;5.50;4.10;;;5.60;99.90;;;;;;4918991;29;20194;-81
2023/03/11 03:51:08;;;;;;;5.30;4.80;;;5.50;99.90;;;;;;4917395;29;20663;-81
2023/03/11 03:53:35;;;;;;;5.43;4.95;;;5.50;99.90;;;;;;4919407;29;20234;-81
2023/03/11 03:56:05;;;;;;;7.22;4.80;;;5.40;99.90;;;;;;4918940;29;20215;-81
2023/03/11 03:58:32;;;;;;;6.57;4.50;;;5.40;99.90;;;;;;4915861;29;20743;-81
2023/03/11 04:00:58;;;;;;;5.22;4.75;;;5.50;99.90;;;;;;4918530;29;20426;-81
2023/03/11 04:03:26;;;;;;;6.43;4.25;;;5.50;99.90;;;;;;4917015;29;20595;-81
2023/03/11 04:05:51;;;;;;;5.93;3.90;;;5.50;99.90;;;;;;4918735;29;20536;-81
2023/03/11 04:08:18;;;;;;;7.27;4.50;;;5.50;99.90;;;;;;4917352;29;20193;-81
2023/03/11 04:10:44;;;;;;;4.30;3.47;;;5.60;99.90;;;;;;4918199;29;20195;-81
2023/03/11 04:13:10;;;;;;;7.28;3.80;;;5.60;99.90;;;;;;4918071;29;20242;-81
2023/03/11 04:15:38;;;;;;;3.90;3.60;;;5.50;99.90;;;;;;4917356;29;20214;-81
2023/03/11 04:18:05;;;;;;;4.80;3.95;;;5.60;99.90;;;;;;4918912;29;20572;-81
2023/03/11 04:20:30;;;;;;;3.80;3.50;;;5.60;99.90;;;;;;4916971;29;20231;-81
2023/03/11 04:22:56;;;;;;;4.20;3.80;;;5.60;99.90;;;;;;4932395;29;20271;-80
2023/03/11 04:25:21;;;;;;;3.57;3.37;;;5.60;99.90;;;;;;4918090;29;20182;-81
2023/03/11 04:27:48;;;;;;;5.73;3.50;;;5.60;99.90;;;;;;4918108;29;20193;-81
2023/03/11 04:30:14;;;;;;;7.38;3.75;;;5.60;99.90;;;;;;4916587;29;20183;-81
2023/03/11 04:32:40;;;;;;;3.80;3.43;;;5.60;99.90;;;;;;4917864;29;20195;-81
2023/03/11 04:35:06;;;;;;;7.73;4.23;;;5.70;99.90;;;;;;4914866;29;20496;-81
2023/03/11 04:37:32;;;;;;;6.38;4.20;;;5.70;99.90;;;;;;4916443;29;20420;-80
2023/03/11 04:40:00;;;;;;;3.40;3.10;;;5.70;99.90;;;;;;4917792;29;20179;-81
2023/03/11 04:42:27;;;;;;;4.85;3.90;;;5.70;99.90;;;;;;4916305;29;20470;-81
2023/03/11 04:44:52;;;;;;;5.80;3.35;;;5.70;99.90;;;;;;4917344;29;20226;-81
2023/03/11 04:47:19;;;;;;;4.70;4.10;;;5.70;99.90;;;;;;4914833;29;20640;-81
2023/03/11 04:49:44;;;;;;;4.18;3.67;;;5.70;99.90;;;;;;4917426;29;20190;-83
2023/03/11 04:52:10;;;;;;;4.20;3.80;;;5.70;99.90;;;;;;4917006;29;20187;-82
2023/03/11 04:54:36;;;;;;;8.50;3.87;;;5.70;99.90;;;;;;4916012;29;20194;-81
2023/03/11 04:57:01;;;;;;;4.23;3.87;;;5.70;99.90;;;;;;4915903;29;20293;-81
2023/03/11 04:59:27;;;;;;;4.50;4.10;;;5.70;99.90;;;;;;4917516;29;20238;-81
2023/03/11 05:01:53;;;;;;;4.07;3.70;;;5.70;99.90;;;;;;4916085;29;20193;-82
2023/03/11 05:04:18;;;;;;;7.40;3.70;;;5.70;99.90;;;;;;4916375;29;20284;-81
2023/03/11 05:06:44;;;;;;;6.40;3.83;;;5.70;99.90;;;;;;4917289;29;20195;-82
2023/03/11 05:09:10;;;;;;;4.97;4.20;;;5.60;99.90;;;;;;4917263;29;20182;-82
2023/03/11 05:11:35;;;;;;;4.87;3.90;;;5.60;99.90;;;;;;4915677;29;20782;-81
2023/03/11 05:14:03;;;;;;;4.23;3.83;;;5.60;99.90;;;;;;4917489;29;20195;-82
2023/03/11 05:16:29;;;;;;;6.32;4.00;;;5.60;99.90;;;;;;4916441;29;20225;-81
2023/03/11 05:18:55;;;;;;;4.83;4.33;;;5.60;99.90;;;;;;4917105;29;20275;-82
2023/03/11 05:21:20;;;;;;;7.47;3.90;;;5.60;99.90;;;;;;4914470;29;20179;-81
2023/03/11 05:23:46;;;;;;;5.83;4.60;;;5.50;99.90;;;;;;4916983;29;20198;-82
2023/03/11 05:26:12;;;;;;;4.57;4.13;;;5.50;99.90;;;;;;4915305;29;20191;-81
2023/03/11 05:28:37;;;;;;;10.10;4.43;;;5.60;99.90;;;;;;4916515;29;20199;-81
2023/03/11 05:31:09;;;;;;;5.03;4.07;;;5.60;99.90;;;;;;4915530;29;20191;-81
2023/03/11 05:33:35;;;;;;;5.50;3.78;;;5.60;99.90;;;;;;4916628;29;20221;-81
2023/03/11 05:36:06;;;;;;;6.22;4.50;;;5.60;99.90;;;;;;4917508;29;20245;-82
2023/03/11 05:38:31;;;;;;;4.43;4.05;;;5.60;99.90;;;;;;4897960;29;20187;-82
2023/03/11 05:40:57;;;;;;;4.00;3.70;;;5.60;99.90;;;;;;4905623;29;20241;-81
2023/03/11 05:43:23;;;;;;;7.00;4.63;;;5.60;99.90;;;;;;4921276;29;20224;-82
2023/03/11 05:45:49;;;;;;;13.67;5.23;;;5.70;99.90;;;;;;4936479;29;20194;-82
2023/03/11 05:48:14;;;;;;;5.37;4.67;;;5.60;99.90;;;;;;4939111;29;20218;-81
2023/03/11 05:50:40;;;;;;;8.07;4.20;;;5.60;99.90;;;;;;4925411;29;20194;-82
2023/03/11 05:53:05;;;;;;;5.67;4.10;;;5.70;99.90;;;;;;4918309;29;20608;-81
2023/03/11 05:55:31;;;;;;;9.00;3.83;;;5.60;99.90;;;;;;4916340;29;20570;-81
2023/03/11 05:57:57;;;;;;;4.10;3.70;;;5.60;99.90;;;;;;4921837;29;20269;-80
2023/03/11 06:00:22;;;;;;;4.00;3.70;;;5.60;99.90;;;;;;4923641;29;20186;-83
2023/03/11 06:02:48;;;;;;;5.03;4.20;;;5.60;99.90;;;;;;4918728;29;20190;-81
2023/03/11 06:05:14;;;;;;;6.37;4.33;;;5.60;99.90;;;;;;4931847;29;20190;-81
2023/03/11 06:07:40;;;;;;;9.27;5.87;;;5.60;99.90;;;;;;4916387;29;20201;-81
2023/03/11 06:10:06;;;;;;;6.30;4.40;;;5.60;99.90;;;;;;4918830;29;20190;-81
2023/03/11 06:12:34;;;;;;;4.40;4.00;;;5.50;99.90;;;;;;4916542;29;20170;-81
2023/03/11 06:14:59;;;;;;;5.63;3.88;;;5.50;99.90;;;;;;4917502;29;20182;-81
2023/03/11 06:17:25;;;;;;;4.40;4.00;;;5.60;99.90;;;;;;4916173;29;20194;-81
2023/03/11 06:19:51;;;;;;;8.07;3.70;;;5.50;99.90;;;;;;4916879;29;20620;-82
2023/03/11 06:22:16;;;;;;;5.17;3.80;;;5.50;99.90;;;;;;4916237;29;20194;-81
2023/03/11 06:24:42;;;;;;;4.80;3.73;;;5.50;99.90;;;;;;4916352;29;20179;-82
2023/03/11 06:27:10;;;;;;;5.07;3.60;;;5.50;99.90;;;;;;4915524;29;20190;-82
2023/03/11 06:29:35;;;;;;;7.68;4.10;;;5.60;99.90;;;;;;4908602;29;20245;-82
2023/03/11 06:32:01;;;;;;;3.97;3.60;;;5.60;99.90;;;;;;4904360;29;20186;-82
2023/03/11 06:34:27;;;;;;;5.83;4.30;;;5.60;99.90;;;;;;4914889;29;20226;-82
2023/03/11 06:36:53;;;;;;;3.90;3.60;;;5.60;99.90;;;;;;4914818;29;20202;-82
2023/03/11 06:39:19;;;;;;;5.32;3.80;;;5.60;99.90;;;;;;4915607;29;20191;-82
2023/03/11 06:41:45;;;;;;;3.57;3.37;;;5.60;99.90;;;;;;4914406;29;20193;-82
2023/03/11 06:44:11;;;;;;;4.13;3.80;;;5.60;99.90;;;;;;4915811;29;20274;-82
2023/03/11 06:46:37;;;;;;;4.35;3.25;;;5.60;99.90;;;;;;4898400;29;20589;-81
2023/03/11 06:49:03;;;;;;;6.30;3.50;;;5.60;99.90;;;;;;4915119;29;20274;-82
2023/03/11 06:51:28;;;;;;;4.00;3.70;;;5.60;99.90;;;;;;4915498;29;20415;-81
2023/03/11 06:53:54;;;;;;;4.30;3.57;;;5.70;99.90;;;;;;4916446;29;20396;-82
2023/03/11 06:56:21;;;;;;;6.63;4.07;;;5.60;99.90;;;;;;4918756;29;20210;-81
2023/03/11 06:58:47;;;;;;;3.72;3.42;;;5.60;99.90;;;;;;4917880;29;20225;-82
2023/03/11 07:01:16;;;;;;;5.85;3.60;;;5.60;99.90;;;;;;4918408;29;20194;-90
2023/03/11 07:03:42;;;;;;;4.80;3.80;;;5.70;99.90;;;;;;4917944;29;20186;-90
2023/03/11 07:06:13;;;;;;;10.07;4.67;;;5.70;99.90;;;;;;4920107;29;20443;-83
2023/03/11 07:08:39;;;;;;;5.22;4.78;;;5.70;99.90;;;;;;4917753;29;20270;-89
2023/03/11 07:11:09;;;;;;;4.00;3.60;;;5.70;99.90;;;;;;4919806;29;20763;-90
2023/03/11 07:13:35;;;;;;;4.07;3.78;;;5.80;99.90;;;;;;4919623;29;20167;-91
2023/03/11 07:16:07;;;;;;;3.40;3.10;;;5.80;99.90;;;;;;4901363;29;20211;-90
2023/03/11 07:18:34;;;;;;;5.50;3.78;;;5.80;99.90;;;;;;4918506;29;20179;-90
2023/03/11 07:21:01;;;;;;;4.75;4.10;;;5.80;99.90;;;;;;4915024;29;20202;-89
2023/03/11 07:23:27;;;;;;;5.07;3.63;;;5.90;99.90;;;;;;4909618;29;20646;-89
2023/03/11 07:25:54;;;;;;;4.47;3.50;;;5.90;99.90;;;;;;4897925;29;20195;-87
2023/03/11 07:28:24;;;;;;;4.25;3.95;;;5.90;99.90;;;;;;4910104;29;20286;-88
2023/03/11 07:30:50;;;;;;;5.78;4.47;;;5.90;99.90;;;;;;4917732;29;20188;-87
2023/03/11 07:33:16;;;;;;;8.35;3.78;;;5.90;99.90;;;;;;4917439;29;20198;-89
2023/03/11 07:35:43;;;;;;;4.30;3.90;;;5.90;99.90;;;;;;4908806;29;20214;-86
2023/03/11 07:38:09;;;;;;;5.35;3.90;;;6.00;99.90;;;;;;4898077;29;20472;-89
2023/03/11 07:40:35;;;;;;;7.30;3.50;;;6.00;99.90;;;;;;4902974;29;20245;-88
2023/03/11 07:43:01;;;;;;;4.07;3.50;;;6.00;99.90;;;;;;4915958;29;20445;-88
2023/03/11 07:45:27;;;;;;;4.00;3.70;;;6.00;99.90;;;;;;4914397;29;20932;-90
2023/03/11 07:47:52;;;;;;;8.30;4.67;;;6.00;99.90;;;;;;4914083;29;20405;-89
2023/03/11 07:50:21;;;;;;;6.80;3.77;;;6.10;99.90;;;;;;4913913;29;20194;-89
2023/03/11 07:52:46;;;;;;;3.53;3.23;;;6.10;99.90;;;;;;4912818;29;20190;-88
2023/03/11 07:55:12;;;;;;;5.07;4.67;;;6.20;99.90;;;;;;4914664;29;20435;-87
2023/03/11 07:57:38;;;;;;;6.10;5.73;;;6.40;99.90;;;;;;4911217;29;21325;-89
2023/03/11 08:00:04;;;;;;;7.63;6.83;;;7.20;99.90;;;;;;4913242;29;20420;-88
2023/03/11 08:02:30;;;;;;;6.63;5.90;;;8.00;99.90;;;;;;4910507;29;20252;-88
2023/03/11 08:04:56;;;;;;;5.10;4.60;;;8.70;99.90;;;;;;4915067;29;20425;-88
2023/03/11 08:07:22;;;;;;;9.17;4.20;;;9.40;99.90;;;;;;4912477;29;20191;-86
2023/03/11 08:09:47;;;;;;;6.00;4.10;;;9.90;99.90;;;;;;4917111;29;20642;-89
2023/03/11 08:12:14;;;;;;;3.73;3.37;;;10.40;99.90;;;;;;4918169;29;20601;-89
2023/03/11 08:14:40;;;;;;;4.63;4.23;;;10.80;99.60;;;;;;4917764;29;20418;-88
2023/03/11 08:17:05;;;;;;;6.73;4.10;;;11.10;99.10;;;;;;4914960;29;20578;-87
2023/03/11 08:19:31;;;;;;;3.63;3.30;;;11.50;95.00;;;;;;4909735;29;20419;-87
2023/03/11 08:21:57;;;;;;;6.90;4.10;;;11.70;93.30;;;;;;4922009;29;20631;-87
2023/03/11 08:24:22;;;;;;;3.63;3.10;;;12.10;93.70;;;;;;4907689;29;20269;-86
2023/03/11 08:26:48;;;;;;;6.63;4.20;;;12.30;91.70;;;;;;4928767;29;20193;-87
2023/03/11 08:29:14;;;;;;;7.13;4.40;;;12.50;89.20;;;;;;4912334;29;20210;-88
2023/03/11 08:31:40;;;;;;;4.20;3.90;;;12.60;86.60;;;;;;4914342;29;20205;-88
2023/03/11 08:34:08;;;;;;;4.80;4.30;;;12.80;86.40;;;;;;4911826;29;20443;-88
2023/03/11 08:36:34;;;;;;;4.23;3.63;;;12.90;84.60;;;;;;4907266;29;20215;-88
2023/03/11 08:39:00;;;;;;;4.63;4.23;;;13.10;83.90;;;;;;4911313;29;20792;-89
2023/03/11 08:41:26;;;;;;;5.20;4.23;;;13.30;81.50;;;;;;4907720;29;20700;-85
2023/03/11 08:43:52;;;;;;;3.77;3.43;;;13.30;79.10;;;;;;4906404;29;20490;-89
2023/03/11 08:46:26;;;;;;;4.50;3.97;;;13.50;80.00;;;;;;4909415;29;20940;-89
2023/03/11 08:48:53;;;;;;;4.13;3.83;;;13.50;83.20;;;;;;4914514;29;20961;-88
2023/03/11 08:51:19;;;;;;;222.37;135.73;;;13.60;80.60;;;;;;4918278;29;20410;-88
2023/03/11 08:53:45;;;;;;;64.47;44.40;;;13.80;78.30;;;;;;4916992;29;20588;-88
2023/03/11 08:56:10;;;;;;;7.60;5.33;;;13.90;79.70;;;;;;4917952;29;20283;-88
2023/03/11 08:58:36;;;;;;;5.53;4.50;;;14.10;79.40;;;;;;4916812;29;20445;-87
2023/03/11 09:01:02;;;;;;;6.53;4.97;;;14.20;75.30;;;;;;4916849;29;20265;-87
2023/03/11 09:03:31;;;;;;;7.20;4.30;;;14.30;75.60;;;;;;4916075;29;20245;-85
2023/03/11 09:05:59;;;;;;;8.70;7.20;;;14.40;75.90;;;;;;4916852;29;20510;-83
2023/03/11 09:08:25;;;;;;;3.63;3.40;;;14.50;73.90;;;;;;4917710;29;20910;-87
2023/03/11 09:10:50;;;;;;;5.53;3.80;;;14.60;72.00;;;;;;4915806;29;20469;-89
2023/03/11 09:13:16;;;;;;;8.53;4.53;;;14.80;72.00;;;;;;4917733;29;20923;-87
2023/03/11 09:15:42;;;;;;;6.93;4.00;;;14.90;73.00;;;;;;4912974;29;20225;-87
2023/03/11 09:18:11;;;;;;;6.53;5.00;;;14.90;72.00;;;;;;4913655;29;20199;-88
2023/03/11 09:20:38;;;;;;;3.90;3.60;;;15.10;70.70;;;;;;4915431;29;20183;-87
2023/03/11 09:23:05;;;;;;;5.20;4.30;;;15.20;67.60;;;;;;4917395;29;20429;-87
2023/03/11 09:25:31;;;;;;;3.43;3.10;;;15.30;69.00;;;;;;4896456;29;20773;-80
2023/03/11 09:27:57;;;;;;;3.00;2.80;;;15.30;64.50;;;;;;4919382;29;20445;-80
2023/03/11 09:30:22;;;;;;;191.37;109.30;;;14.90;60.20;;;;;;4916938;29;20435;-79
2023/03/11 09:32:48;;;;;;;13.70;8.00;;;14.20;61.80;;;;;;4916323;29;20204;-80
2023/03/11 09:35:14;;;;;;;5.77;3.50;;;13.50;62.60;;;;;;4914704;29;20184;-79
2023/03/11 09:37:40;;;;;;;2.93;2.73;;;12.80;65.60;;;;;;4899282;29;20614;-79
2023/03/11 09:40:06;;;;;;;4.13;3.10;;;12.20;62.80;;;;;;4908563;29;20430;-79
2023/03/11 09:42:55;;;;;;;3.77;2.97;;;11.90;64.40;;;;;;4911964;29;20198;-80
2023/03/11 09:45:25;;;;;;;4.33;2.93;;;11.50;68.20;;;;;;4904144;29;20868;-80
2023/03/11 09:48:17;;;;;;;3.00;2.80;;;11.10;67.20;;;;;;4915250;29;20517;-80
2023/03/11 09:50:57;;;;;;;3.63;3.33;;;10.90;68.30;;;;;;4909514;29;20473;-80
2023/03/11 09:53:43;;;;;;;3.70;3.40;;;10.60;69.80;;;;;;4916638;29;20874;-79
2023/03/11 09:56:15;;;;;;;2.77;2.60;;;10.30;68.10;;;;;;4915837;29;20507;-79
2023/03/11 09:58:46;;;;;;;3.90;3.23;;;10.10;69.10;;;;;;4915989;29;20553;-80
2023/03/11 10:01:23;;;;;;;3.23;2.63;;;9.90;72.10;;;;;;4916399;29;20399;-80
2023/03/11 10:03:53;;;;;;;3.27;2.60;;;9.80;74.50;;;;;;4915307;29;20584;-79
2023/03/11 10:06:29;;;;;;;2.67;2.47;;;9.80;74.70;;;;;;4914773;29;20591;-79
2023/03/11 10:09:13;;;;;;;2.90;2.30;;;9.90;75.80;;;;;;4915029;29;20450;-79
2023/03/11 10:11:59;;;;;;;3.17;2.37;;;10.00;76.40;;;;;;4914188;29;20443;-79
2023/03/11 10:15:08;;;;;;;3.30;2.40;;;10.00;70.00;;;;;;4916437;29;20433;-79
2023/03/11 10:18:06;;;;;;;2.60;2.50;;;9.80;71.90;;;;;;4915192;29;20439;-81
2023/03/11 10:20:58;;;;;;;3.03;2.50;;;9.80;73.10;;;;;;4915281;29;20436;-82
2023/03/11 10:24:02;;;;;;;291.40;142.50;;;9.70;70.20;;;;;;4915576;29;20451;-79
2023/03/11 10:26:31;;;;;;;364.13;216.60;;;10.00;72.00;;;;;;4915621;29;20897;-80
2023/03/11 10:29:19;;;;;;;10.23;9.00;;;10.30;75.80;;;;;;4915583;29;20459;-80
2023/03/11 10:31:56;;;;;;;2.60;2.50;;;10.60;74.10;;;;;;4914701;29;20448;-80
2023/03/11 10:34:52;;;;;;;3.07;2.40;;;10.60;73.60;;;;;;4915607;29;20405;-79
2023/03/11 10:37:23;;;;;;;2.50;2.40;;;10.80;71.30;;;;;;4895793;29;20489;-79
2023/03/11 10:39:50;;;;;;;4.60;2.40;;;10.70;69.00;;;;;;4914721;29;20465;-80
2023/03/11 10:42:28;;;;;;;4.67;2.20;;;10.70;69.60;;;;;;4915326;29;20437;-81
2023/03/11 10:44:54;;;;;;;2.37;2.27;;;10.70;67.40;;;;;;4914971;29;20988;-81
2023/03/11 10:47:24;;;;;;;2.10;2.00;;;10.60;67.80;;;;;;4915189;29;20469;-81
2023/03/11 10:49:51;;;;;;;2.10;1.90;;;10.40;64.80;;;;;;4914740;29;20471;-81
2023/03/11 10:52:17;;;;;;;2.07;1.97;;;10.40;66.00;;;;;;4911731;29;20416;-82
2023/03/11 10:54:46;;;;;;;2.53;2.33;;;10.30;65.50;;;;;;4905913;29;20432;-81
2023/03/11 10:57:31;;;;;;;6.37;2.50;;;10.30;65.20;;;;;;4905845;29;20478;-82
2023/03/11 11:00:21;;;;;;;2.63;2.00;;;10.30;67.60;;;;;;4906222;29;20437;-79
2023/03/11 11:02:52;;;;;;;2.27;2.10;;;10.40;67.10;;;;;;4910086;29;20437;-81
2023/03/11 11:05:21;;;;;;;130.37;85.73;;;10.60;67.30;;;;;;4904605;29;20847;-81
2023/03/11 11:07:49;;;;;;;37.27;22.37;;;10.70;67.60;;;;;;4910356;29;20532;-81
2023/03/11 11:10:22;;;;;;;3.80;3.50;;;10.90;70.80;;;;;;4901983;29;20433;-81
2023/03/11 11:12:57;;;;;;;3.30;3.00;;;10.80;66.50;;;;;;4912485;29;20481;-80
2023/03/11 11:15:27;;;;;;;3.40;3.10;;;10.80;66.80;;;;;;4924725;29;20449;-80
2023/03/11 11:17:55;;;;;;;2.53;2.33;;;10.80;66.20;;;;;;4913565;29;20455;-80
2023/03/11 11:20:23;;;;;;;3.17;2.73;;;10.60;67.00;;;;;;4915431;29;20414;-81
2023/03/11 11:22:52;;;;;;;2.63;2.00;;;10.70;65.00;;;;;;4912540;29;20430;-81
2023/03/11 11:25:33;;;;;;;2.03;1.93;;;10.90;68.30;;;;;;4897669;29;20502;-81
2023/03/11 11:28:13;;;;;;;2.47;2.33;;;11.00;64.60;;;;;;4914632;29;20442;-79
2023/03/11 11:30:52;;;;;;;2.53;2.20;;;11.10;63.20;;;;;;4913471;29;20953;-81
2023/03/11 11:33:51;;;;;;;2.33;2.20;;;11.20;61.80;;;;;;4911115;29;20446;-85
2023/03/11 11:36:19;;;;;;;2.17;2.07;;;11.40;62.70;;;;;;4897209;29;20851;-82
2023/03/11 11:38:45;;;;;;;3.00;2.67;;;11.50;62.00;;;;;;4906655;29;20453;-81
2023/03/11 11:41:17;;;;;;;2.90;2.60;;;11.70;61.10;;;;;;4909831;29;20809;-82
2023/03/11 11:43:56;;;;;;;2.30;2.10;;;11.80;59.60;;;;;;4876738;29;20632;-83
2023/03/11 11:46:30;;;;;;;3.37;2.60;;;11.80;57.90;;;;;;4914509;29;20460;-81
2023/03/11 11:49:03;;;;;;;2.20;2.10;;;12.10;58.90;;;;;;4912017;29;20567;-82
2023/03/11 11:51:49;;;;;;;2.83;2.60;;;12.20;58.00;;;;;;4910025;29;20817;-83
2023/03/11 11:54:37;;;;;;;3.40;2.67;;;12.40;56.20;;;;;;4916226;29;20434;-82
2023/03/11 11:57:12;;;;;;;5.17;2.57;;;12.40;56.80;;;;;;4913044;29;20448;-82
2023/03/11 11:59:38;;;;;;;2.17;2.07;;;12.50;56.50;;;;;;4908961;29;20538;-83
2023/03/11 12:02:13;;;;;;;2.43;2.33;;;12.60;56.80;;;;;;4909035;29;20449;-81
2023/03/11 12:05:06;;;;;;;2.43;2.23;;;12.60;58.10;;;;;;4906991;29;20529;-82
2023/03/11 12:07:53;;;;;;;2.40;2.20;;;12.70;58.90;;;;;;4907293;29;20406;-82
2023/03/11 12:10:25;;;;;;;5.27;2.37;;;12.80;56.60;;;;;;4909828;29;20468;-83
2023/03/11 12:13:20;;;;;;;2.40;2.30;;;12.90;56.30;;;;;;4908772;29;20532;-83
2023/03/11 12:15:58;;;;;;;2.80;2.00;;;12.90;57.60;;;;;;4888925;29;20837;-82
2023/03/11 12:18:35;;;;;;;3.37;2.10;;;12.80;53.40;;;;;;4918712;29;20764;-82
2023/03/11 12:21:26;;;;;;;2.20;2.10;;;12.70;52.90;;;;;;4916124;29;20426;-82
2023/03/11 12:24:01;;;;;;;2.63;2.43;;;12.70;54.80;;;;;;4915834;29;20485;-82
2023/03/11 12:26:32;;;;;;;2.40;2.20;;;12.70;56.40;;;;;;4917102;29;20456;-83
2023/03/11 12:29:11;;;;;;;3.90;1.93;;;12.60;58.40;;;;;;4898790;29;20471;-83
2023/03/11 12:31:40;;;;;;;3.87;3.10;;;12.70;56.50;;;;;;4909653;29;20454;-86
2023/03/11 12:34:11;;;;;;;2.33;2.20;;;12.70;56.10;;;;;;4916319;29;20423;-83
2023/03/11 12:36:42;;;;;;;3.10;2.20;;;12.70;55.10;;;;;;4917001;29;20964;-86
2023/03/11 12:39:20;;;;;;;3.47;2.60;;;12.70;54.50;;;;;;4917907;29;20453;-83
2023/03/11 12:41:45;;;;;;;2.43;2.23;;;12.60;55.00;;;;;;4916946;29;20437;-83
2023/03/11 12:44:27;;;;;;;5.00;2.60;;;12.60;55.20;;;;;;4901858;29;20543;-83
2023/03/11 12:46:53;;;;;;;6.43;4.20;;;12.70;54.60;;;;;;4916892;29;20197;-82
2023/03/11 12:49:29;;;;;;;4.17;3.47;;;12.60;55.70;;;;;;4919112;29;20438;-82
2023/03/11 12:52:14;;;;;;;4.03;3.73;;;12.50;55.70;;;;;;4917817;29;20414;-82
2023/03/11 12:54:45;;;;;;;4.13;3.73;;;12.40;56.20;;;;;;4918921;29;20904;-86
2023/03/11 12:57:17;;;;;;;3.93;3.60;;;12.40;57.10;;;;;;4918874;29;20470;-82
2023/03/11 13:00:16;;;;;;;3.70;3.00;;;12.30;57.30;;;;;;4921853;29;20442;-82
2023/03/11 13:03:03;;;;;;;4.10;2.87;;;12.30;57.60;;;;;;4917624;29;20443;-84